Time;durP1;ratioP1;P1;durP2;ratioP2;P2;SDS_P1;SDS_P2;PMS_P1;PMS_P2;Temp;Humidity;BMP_temperature;BMP_pressure;BME280_temperature;BME280_humidity;BME280_pressure;Samples;Min_cycle;Max_cycle;Signal;HPM_P1;HPM_P2
2023/04/27 00:02:42;;;;;;;12.40;6.35;;;6.90;1.00;;;;;;5016807;28;20060;-88
2023/04/27 00:05:39;;;;;;;10.93;6.82;;;6.80;1.00;;;;;;5025448;28;20045;-88
2023/04/27 00:08:26;;;;;;;11.35;7.07;;;6.80;1.00;;;;;;5031262;28;20121;-89
2023/04/27 00:11:13;;;;;;;12.38;6.80;;;6.80;1.00;;;;;;5034877;28;20472;-89
2023/04/27 00:14:02;;;;;;;11.57;6.07;;;6.80;1.00;;;;;;5030621;28;20046;-89
2023/04/27 00:16:49;;;;;;;14.20;5.97;;;6.70;1.00;;;;;;5018918;28;20057;-90
2023/04/27 00:19:38;;;;;;;14.80;6.50;;;6.70;1.00;;;;;;5022886;28;20049;-89
2023/04/27 00:22:25;;;;;;;9.30;6.28;;;6.70;1.00;;;;;;5035016;28;20058;-89
2023/04/27 00:25:13;;;;;;;14.57;7.53;;;6.70;1.00;;;;;;5020283;28;20045;-88
2023/04/27 00:28:00;;;;;;;10.75;6.80;;;6.70;1.00;;;;;;5022206;28;20461;-89
2023/04/27 00:30:47;;;;;;;12.13;7.07;;;6.60;1.00;;;;;;5040661;28;20054;-88
2023/04/27 00:33:37;;;;;;;12.73;6.65;;;6.70;1.00;;;;;;5031418;28;20479;-88
2023/04/27 00:36:26;;;;;;;14.45;6.78;;;6.60;1.00;;;;;;5031177;28;20061;-88
2023/04/27 00:39:14;;;;;;;15.95;7.95;;;6.60;1.00;;;;;;5041676;28;20060;-89
2023/04/27 00:42:02;;;;;;;13.50;7.45;;;6.60;1.00;;;;;;5035372;28;20051;-89
2023/04/27 00:44:51;;;;;;;15.57;7.10;;;6.60;1.00;;;;;;5020398;28;20155;-88
2023/04/27 00:47:39;;;;;;;10.95;6.35;;;6.50;1.00;;;;;;5022646;28;20045;-89
2023/04/27 00:50:30;;;;;;;11.75;6.57;;;6.50;1.00;;;;;;5021009;28;20071;-88
2023/04/27 00:53:20;;;;;;;9.32;6.38;;;6.40;1.00;;;;;;5030014;28;20088;-89
2023/04/27 00:56:07;;;;;;;14.23;6.95;;;6.40;1.00;;;;;;5036703;28;20072;-88
2023/04/27 00:58:55;;;;;;;11.68;6.40;;;6.40;1.00;;;;;;5043854;28;20068;-89
2023/04/27 01:01:43;;;;;;;10.27;6.38;;;6.30;1.00;;;;;;5015183;28;20164;-88
2023/04/27 01:04:31;;;;;;;8.32;6.05;;;6.30;1.00;;;;;;5036768;28;20061;-88
2023/04/27 01:07:23;;;;;;;12.15;5.95;;;6.30;1.00;;;;;;5040300;28;20065;-87
2023/04/27 01:10:10;;;;;;;9.68;6.40;;;6.30;1.00;;;;;;5031886;28;20041;-89
2023/04/27 01:13:00;;;;;;;13.52;6.75;;;6.30;1.00;;;;;;5033335;28;20045;-88
2023/04/27 01:15:50;;;;;;;14.90;6.88;;;6.30;1.00;;;;;;5008759;28;21580;-88
2023/04/27 01:18:39;;;;;;;10.18;6.78;;;6.20;9.10;;;;;;5031683;28;20077;-88
2023/04/27 01:21:26;;;;;;;13.88;7.60;;;6.20;15.90;;;;;;5020352;28;20050;-90
2023/04/27 01:24:16;;;;;;;12.52;6.97;;;6.10;3.70;;;;;;5020809;28;20057;-88
2023/04/27 01:27:03;;;;;;;10.38;6.15;;;6.10;3.20;;;;;;5020138;28;20052;-88
2023/04/27 01:29:50;;;;;;;14.98;6.97;;;6.10;3.20;;;;;;5021023;28;20124;-88
2023/04/27 01:32:38;;;;;;;18.73;6.65;;;6.10;1.00;;;;;;5031441;28;20033;-88
2023/04/27 01:35:25;;;;;;;12.82;6.47;;;6.10;1.00;;;;;;5037465;28;20388;-88
2023/04/27 01:38:14;;;;;;;11.18;6.68;;;6.10;1.00;;;;;;5021396;28;20046;-89
2023/04/27 01:41:06;;;;;;;13.00;6.78;;;6.20;1.00;;;;;;5023145;28;20052;-89
2023/04/27 01:43:53;;;;;;;11.75;6.03;;;6.20;1.00;;;;;;5021156;28;20037;-87
2023/04/27 01:46:40;;;;;;;12.27;6.30;;;6.20;1.00;;;;;;5025489;28;20144;-89
2023/04/27 01:49:28;;;;;;;9.23;5.45;;;6.20;1.00;;;;;;5024706;28;20061;-89
2023/04/27 01:52:17;;;;;;;18.40;6.70;;;6.20;1.00;;;;;;5026063;28;20055;-89
2023/04/27 01:55:05;;;;;;;10.48;6.05;;;6.20;1.00;;;;;;5024001;28;20046;-88
2023/04/27 01:58:10;;;;;;;8.57;6.03;;;6.20;1.00;;;;;;5044435;28;20433;-90
2023/04/27 02:00:57;;;;;;;6.93;5.25;;;6.20;1.00;;;;;;5014446;28;20049;-88
2023/04/27 02:03:44;;;;;;;12.88;6.03;;;6.20;1.00;;;;;;5020389;28;20068;-89
2023/04/27 02:06:32;;;;;;;11.25;5.43;;;6.20;1.00;;;;;;5021144;28;20045;-89
2023/04/27 02:09:19;;;;;;;10.38;5.93;;;6.10;1.00;;;;;;5005832;28;20120;-89
2023/04/27 02:12:07;;;;;;;13.55;6.43;;;6.20;1.00;;;;;;5033783;28;20381;-87
2023/04/27 02:14:54;;;;;;;8.25;5.75;;;6.10;1.00;;;;;;5032539;28;20045;-88
2023/04/27 02:17:44;;;;;;;7.78;5.75;;;6.10;1.00;;;;;;5012636;28;20042;-89
2023/04/27 02:20:37;;;;;;;15.73;6.70;;;6.20;1.00;;;;;;5022340;28;20063;-88
2023/04/27 02:23:24;;;;;;;11.43;6.32;;;6.10;1.00;;;;;;5019965;28;20045;-89
2023/04/27 02:26:21;;;;;;;12.05;5.88;;;6.10;1.00;;;;;;5019728;28;20147;-88
2023/04/27 03:19:38;;;;;;;15.05;5.80;;;6.00;30.20;;;;;;5036016;28;20344;-86
2023/04/27 03:22:25;;;;;;;8.88;5.97;;;5.90;44.20;;;;;;5021162;28;20504;-85
2023/04/27 03:25:13;;;;;;;10.23;5.57;;;5.90;51.00;;;;;;5033250;28;20173;-84
2023/04/27 03:28:03;;;;;;;10.77;5.97;;;5.90;79.80;;;;;;5021737;28;20042;-84
2023/04/27 03:30:50;;;;;;;13.15;6.53;;;5.90;99.90;;;;;;5043930;28;20445;-84
2023/04/27 03:33:37;;;;;;;7.65;5.53;;;5.90;99.90;;;;;;5042268;28;20093;-86
2023/04/27 03:36:25;;;;;;;12.70;6.47;;;5.90;99.90;;;;;;5035942;28;20065;-85
2023/04/27 03:39:13;;;;;;;8.43;6.47;;;5.90;99.90;;;;;;5020691;28;20052;-86
2023/04/27 03:42:03;;;;;;;8.95;6.30;;;5.90;99.90;;;;;;5035653;28;20368;-85
2023/04/27 03:44:50;;;;;;;8.43;6.10;;;5.80;99.90;;;;;;5034951;28;20100;-86
2023/04/27 03:47:38;;;;;;;12.55;6.22;;;5.80;99.90;;;;;;5034518;28;20053;-86
2023/04/27 03:50:25;;;;;;;9.90;5.63;;;5.80;99.90;;;;;;5039301;28;20053;-87
2023/04/27 03:53:15;;;;;;;12.93;6.47;;;5.80;99.90;;;;;;5049097;28;20045;-86
2023/04/27 03:56:02;;;;;;;10.20;6.10;;;5.80;99.90;;;;;;5043503;28;20108;-85
2023/04/27 03:58:50;;;;;;;10.93;6.60;;;5.80;99.90;;;;;;5028273;28;20045;-85
2023/04/27 04:02:20;;;;;;;10.65;6.28;;;5.80;99.90;;;;;;5036324;28;20041;-86
2023/04/27 04:05:31;;;;;;;9.77;6.60;;;5.80;99.90;;;;;;5005153;28;20107;-85
2023/04/27 04:08:18;;;;;;;10.77;6.28;;;5.80;99.90;;;;;;5018914;28;20387;-86
2023/04/27 04:11:09;;;;;;;11.90;6.00;;;5.80;99.90;;;;;;5034143;28;20050;-85
2023/04/27 04:13:56;;;;;;;12.85;6.57;;;5.80;99.90;;;;;;5017226;28;20046;-86
2023/04/27 04:16:43;;;;;;;12.48;6.90;;;5.80;99.90;;;;;;5034931;28;20143;-87
2023/04/27 04:19:32;;;;;;;10.13;5.72;;;5.80;99.90;;;;;;5018709;28;20104;-86
2023/04/27 04:22:20;;;;;;;12.45;6.38;;;5.80;99.90;;;;;;5021203;28;20157;-86
2023/04/27 04:25:10;;;;;;;15.88;6.85;;;5.80;99.90;;;;;;5046606;28;20072;-86
2023/04/27 04:28:00;;;;;;;17.05;6.72;;;5.80;99.90;;;;;;5034389;28;20139;-85
2023/04/27 04:34:49;;;;;;;9.43;6.10;;;5.80;99.90;;;;;;5029639;28;20056;-85
2023/04/27 04:37:37;;;;;;;8.50;6.05;;;5.80;1.00;;;;;;5017191;28;20529;-86
2023/04/27 04:40:24;;;;;;;10.45;6.07;;;5.80;1.00;;;;;;5033078;28;20052;-86
2023/04/27 04:43:12;;;;;;;11.07;6.15;;;5.90;1.00;;;;;;5037378;28;20052;-86
2023/04/27 04:45:59;;;;;;;18.08;9.27;;;5.90;1.00;;;;;;5035436;28;20392;-86
2023/04/27 04:48:46;;;;;;;15.77;7.03;;;5.90;1.00;;;;;;5035004;28;20049;-85
2023/04/27 04:51:34;;;;;;;18.08;7.75;;;6.00;1.00;;;;;;5008678;28;20041;-84
2023/04/27 04:54:21;;;;;;;11.55;6.93;;;6.00;99.90;;;;;;5022134;28;20093;-86
2023/04/27 04:57:09;;;;;;;10.50;6.85;;;6.00;99.90;;;;;;5033470;28;20049;-87
2023/04/27 04:59:59;;;;;;;9.70;7.18;;;6.00;1.00;;;;;;5038882;28;20453;-87
2023/04/27 05:02:46;;;;;;;13.15;8.45;;;6.10;1.00;;;;;;5046958;28;20053;-85
2023/04/27 05:05:33;;;;;;;11.48;8.10;;;6.10;1.00;;;;;;5026770;28;20475;-85
2023/04/27 05:08:20;;;;;;;13.48;8.20;;;6.10;1.00;;;;;;5033170;28;20046;-84
2023/04/27 05:11:07;;;;;;;14.13;8.35;;;6.10;1.00;;;;;;5044408;28;20313;-85
2023/04/27 05:13:55;;;;;;;15.30;8.27;;;6.20;1.00;;;;;;5030072;28;20042;-86
2023/04/27 05:16:42;;;;;;;11.52;7.13;;;6.30;1.00;;;;;;5043509;28;20085;-84
2023/04/27 05:19:32;;;;;;;14.55;7.38;;;6.40;1.00;;;;;;5032208;28;20049;-84
2023/04/27 05:22:19;;;;;;;15.02;7.07;;;6.40;1.00;;;;;;5025826;28;20415;-85
2023/04/27 05:25:07;;;;;;;9.00;6.80;;;6.50;1.00;;;;;;5036976;28;20211;-83
2023/04/27 05:27:57;;;;;;;11.20;6.95;;;6.60;1.00;;;;;;5034046;28;20046;-85
2023/04/27 05:30:44;;;;;;;10.63;6.45;;;6.70;1.00;;;;;;5050527;28;20049;-86
2023/04/27 05:33:34;;;;;;;14.25;7.70;;;6.90;1.00;;;;;;5022862;28;20077;-83
2023/04/27 05:36:21;;;;;;;13.13;6.95;;;7.00;1.00;;;;;;5058558;28;20120;-84
2023/04/27 05:39:11;;;;;;;8.23;5.60;;;7.10;1.00;;;;;;5033587;28;20393;-84
2023/04/27 05:41:59;;;;;;;8.32;5.47;;;7.20;1.00;;;;;;5026712;28;20472;-86
2023/04/27 05:44:48;;;;;;;10.77;6.70;;;7.30;99.90;;;;;;5022982;28;20064;-83
2023/04/27 05:47:38;;;;;;;13.70;6.28;;;7.40;99.90;;;;;;5041785;28;20332;-87
2023/04/27 05:50:25;;;;;;;9.48;5.30;;;7.50;99.90;;;;;;5029235;28;20463;-85
2023/04/27 05:53:12;;;;;;;10.10;5.20;;;7.60;99.90;;;;;;5050349;28;20041;-84
2023/04/27 05:56:03;;;;;;;9.40;5.82;;;7.80;99.90;;;;;;5028667;28;20025;-83
2023/04/27 05:58:50;;;;;;;9.10;5.60;;;7.70;99.90;;;;;;5053622;28;20389;-88
2023/04/27 06:01:38;;;;;;;14.68;6.43;;;7.70;99.90;;;;;;5043262;28;20076;-89
2023/04/27 06:04:26;;;;;;;9.60;6.22;;;8.00;99.90;;;;;;5029485;28;20049;-87
2023/04/27 06:07:14;;;;;;;11.15;5.68;;;8.30;99.90;;;;;;5013784;28;20042;-86
2023/04/27 06:10:07;;;;;;;10.75;5.40;;;8.60;99.90;;;;;;5037093;28;20053;-88
2023/04/27 06:12:54;;;;;;;8.45;5.10;;;8.80;1.00;;;;;;5023954;28;20488;-87
2023/04/27 06:15:41;;;;;;;7.25;4.82;;;9.00;1.00;;;;;;5032791;28;20046;-88
2023/04/27 06:18:31;;;;;;;9.40;5.20;;;9.00;1.00;;;;;;5004800;28;20060;-87
2023/04/27 06:21:20;;;;;;;8.90;6.18;;;8.90;99.90;;;;;;5034992;28;20104;-87
2023/04/27 06:24:08;;;;;;;13.43;6.53;;;8.80;99.90;;;;;;5024055;28;20388;-87
2023/04/27 06:26:57;;;;;;;13.20;6.78;;;8.80;99.90;;;;;;5021605;28;20045;-88
2023/04/27 06:29:47;;;;;;;19.35;6.90;;;8.90;99.90;;;;;;5022428;28;20049;-86
2023/04/27 06:32:37;;;;;;;12.23;6.55;;;9.00;99.90;;;;;;5024466;28;20060;-88
2023/04/27 06:35:25;;;;;;;14.52;6.25;;;9.10;99.90;;;;;;5016231;28;20056;-90
2023/04/27 06:38:13;;;;;;;9.32;5.40;;;9.30;99.90;;;;;;5005324;28;20041;-88
2023/04/27 06:41:03;;;;;;;12.43;6.40;;;9.60;99.90;;;;;;5020633;28;20041;-89
2023/04/27 06:43:52;;;;;;;10.93;6.05;;;9.70;99.90;;;;;;5013117;28;20113;-88
2023/04/27 06:46:40;;;;;;;12.13;6.30;;;9.80;99.90;;;;;;5031777;28;20042;-85
2023/04/27 06:49:27;;;;;;;14.75;6.85;;;10.00;99.90;;;;;;5025094;28;20045;-88
2023/04/27 06:52:17;;;;;;;10.40;6.15;;;10.00;99.90;;;;;;5002133;28;20042;-88
2023/04/27 06:55:08;;;;;;;11.20;5.82;;;10.10;99.90;;;;;;5029926;28;20053;-87
2023/04/27 06:57:55;;;;;;;9.18;5.70;;;10.30;99.90;;;;;;5028552;28;20045;-87
2023/04/27 07:00:43;;;;;;;10.82;5.80;;;10.60;99.90;;;;;;5009256;28;20055;-87
2023/04/27 07:03:33;;;;;;;10.00;5.63;;;10.70;99.90;;;;;;5028808;28;20053;-86
2023/04/27 07:06:21;;;;;;;8.88;4.93;;;11.00;99.90;;;;;;5028229;28;20156;-88
2023/04/27 07:09:08;;;;;;;10.88;5.30;;;11.40;99.90;;;;;;5010671;28;20038;-88
2023/04/27 07:12:12;;;;;;;12.25;5.55;;;11.40;99.90;;;;;;5033341;28;20390;-88
2023/04/27 07:15:02;;;;;;;10.20;5.38;;;11.50;99.90;;;;;;5015792;28;20044;-86
2023/04/27 07:17:52;;;;;;;10.93;4.57;;;11.60;99.90;;;;;;5026388;28;20073;-88
2023/04/27 07:20:41;;;;;;;9.60;5.60;;;11.80;99.90;;;;;;5028069;28;20479;-87
2023/04/27 07:23:28;;;;;;;10.55;5.30;;;11.80;99.90;;;;;;5010428;28;20298;-88
2023/04/27 07:26:16;;;;;;;11.65;5.55;;;12.40;99.90;;;;;;5031953;28;20053;-87
2023/04/27 07:29:05;;;;;;;10.40;5.10;;;12.60;95.90;;;;;;5017769;28;20515;-87
2023/04/27 07:32:11;;;;;;;8.35;4.85;;;12.60;84.80;;;;;;5030618;28;20069;-88
2023/04/27 07:34:59;;;;;;;8.60;4.90;;;13.10;85.50;;;;;;5022831;28;20041;-87
2023/04/27 07:37:47;;;;;;;8.82;4.75;;;13.50;61.30;;;;;;5035585;28;20045;-86
2023/04/27 07:40:35;;;;;;;7.25;4.05;;;13.40;51.30;;;;;;5036820;28;20544;-87
2023/04/27 07:43:24;;;;;;;12.02;4.68;;;13.50;51.30;;;;;;5009119;28;20038;-88
2023/04/27 07:46:11;;;;;;;10.68;4.82;;;14.20;46.50;;;;;;5020642;28;20045;-87
2023/04/27 07:48:59;;;;;;;10.68;4.43;;;15.00;34.80;;;;;;5038654;28;20048;-90
2023/04/27 07:51:46;;;;;;;10.45;4.00;;;14.50;27.10;;;;;;5026937;28;20053;-89
2023/04/27 07:54:35;;;;;;;8.75;4.50;;;14.90;21.30;;;;;;5008903;28;20045;-89
2023/04/27 07:57:25;;;;;;;6.82;3.65;;;14.60;17.40;;;;;;5029000;28;20057;-87
2023/04/27 08:00:13;;;;;;;7.88;3.70;;;14.90;21.70;;;;;;5019213;28;20192;-90
2023/04/27 08:03:02;;;;;;;9.63;4.00;;;16.00;14.70;;;;;;5009257;28;20052;-89
2023/04/27 08:05:53;;;;;;;7.07;4.00;;;15.60;9.60;;;;;;5012449;28;20055;-89
2023/04/27 08:08:41;;;;;;;8.00;3.80;;;15.60;6.80;;;;;;5047630;28;20116;-90
2023/04/27 08:11:29;;;;;;;5.65;3.53;;;15.40;1.00;;;;;;5033148;28;20061;-88
2023/04/27 08:14:18;;;;;;;4.95;3.00;;;15.20;1.00;;;;;;5046031;28;20053;-88
2023/04/27 08:17:06;;;;;;;8.95;4.32;;;16.10;1.00;;;;;;5052948;28;20049;-90
2023/04/27 08:19:57;;;;;;;9.13;3.60;;;16.60;1.00;;;;;;5028582;28;20053;-87
2023/04/27 08:22:44;;;;;;;5.78;2.60;;;17.20;1.00;;;;;;5027096;28;20085;-88
2023/04/27 08:25:35;;;;;;;6.13;2.65;;;17.20;1.00;;;;;;5028957;28;20045;-89
2023/04/27 08:28:23;;;;;;;7.22;3.00;;;16.70;1.00;;;;;;5057253;28;20049;-89
2023/04/27 08:31:10;;;;;;;7.25;2.55;;;16.50;1.00;;;;;;5042220;28;20065;-88
2023/04/27 08:33:57;;;;;;;9.13;2.80;;;17.20;1.00;;;;;;5044562;28;20084;-87
2023/04/27 08:36:45;;;;;;;4.47;2.08;;;18.00;1.00;;;;;;5045127;28;20021;-87
2023/04/27 08:39:32;;;;;;;4.32;2.83;;;17.40;1.00;;;;;;5057462;28;20030;-89
2023/04/27 08:42:20;;;;;;;10.73;3.50;;;16.60;1.00;;;;;;5055114;28;20029;-87
2023/04/27 08:45:09;;;;;;;7.00;2.90;;;16.50;1.00;;;;;;5048290;28;20049;-88
2023/04/27 08:47:56;;;;;;;7.22;2.67;;;17.10;1.00;;;;;;5021762;28;20073;-88
2023/04/27 08:50:44;;;;;;;7.45;3.17;;;17.00;1.00;;;;;;5013323;28;20045;-89
2023/04/27 08:53:32;;;;;;;5.97;2.72;;;17.40;1.00;;;;;;5010795;28;20487;-86
2023/04/27 08:56:23;;;;;;;5.35;2.70;;;18.20;1.00;;;;;;5030480;28;20495;-90
2023/04/27 08:59:14;;;;;;;8.82;3.20;;;18.60;1.00;;;;;;5026352;28;20048;-88
2023/04/27 09:02:03;;;;;;;6.45;2.75;;;17.40;1.00;;;;;;5044490;28;20064;-88
2023/04/27 09:04:51;;;;;;;5.85;2.65;;;17.50;1.00;;;;;;5021264;28;20045;-89
2023/04/27 09:07:41;;;;;;;5.57;2.47;;;18.70;1.00;;;;;;5036939;28;20046;-88
2023/04/27 09:10:28;;;;;;;6.82;2.95;;;18.20;1.00;;;;;;5016912;28;20073;-89
2023/04/27 09:13:17;;;;;;;4.28;2.40;;;18.60;1.00;;;;;;5033122;28;20042;-87
2023/04/27 09:16:07;;;;;;;7.07;2.58;;;19.10;1.00;;;;;;5026993;28;20046;-90
2023/04/27 09:18:57;;;;;;;8.70;2.30;;;19.20;1.00;;;;;;5002821;28;20049;-89
2023/04/27 09:21:47;;;;;;;4.82;2.08;;;19.40;1.00;;;;;;5033858;28;20136;-89
2023/04/27 09:24:34;;;;;;;5.78;2.08;;;20.40;1.00;;;;;;5032809;28;20121;-89
2023/04/27 09:27:22;;;;;;;3.03;1.83;;;21.10;1.00;;;;;;5033547;28;20107;-88
2023/04/27 09:30:14;;;;;;;8.68;2.17;;;21.70;1.00;;;;;;5037771;28;20057;-90
2023/04/27 09:33:01;;;;;;;8.48;1.95;;;22.50;1.00;;;;;;5028063;28;20097;-90
2023/04/27 09:35:49;;;;;;;4.63;1.88;;;23.00;1.00;;;;;;5034758;28;20048;-90
2023/04/27 09:38:37;;;;;;;4.30;1.70;;;23.20;1.00;;;;;;5017501;28;20084;-89
2023/04/27 09:41:28;;;;;;;6.85;2.35;;;23.30;1.00;;;;;;5016991;28;20053;-89
2023/04/27 09:44:16;;;;;;;5.38;1.70;;;24.00;1.00;;;;;;5038497;28;20029;-91
2023/04/27 09:47:06;;;;;;;4.63;2.25;;;23.90;1.00;;;;;;5016862;28;20192;-87
2023/04/27 09:49:56;;;;;;;4.95;1.92;;;23.20;1.00;;;;;;5031542;28;20111;-89
2023/04/27 09:52:45;;;;;;;4.60;2.08;;;23.40;1.00;;;;;;5003097;28;20073;-89
2023/04/27 09:55:59;;;;;;;6.35;2.42;;;23.20;1.00;;;;;;5007168;28;20058;-89
2023/04/27 09:58:54;;;;;;;5.00;2.28;;;22.50;1.00;;;;;;5006102;28;20393;-89
2023/04/27 10:01:53;;;;;;;3.55;2.42;;;21.10;1.00;;;;;;5024544;28;20047;-89
2023/04/27 10:04:58;;;;;;;6.22;2.40;;;19.70;1.00;;;;;;5042336;28;20045;-89
2023/04/27 10:07:48;;;;;;;6.53;2.10;;;19.80;1.00;;;;;;5018655;28;20058;-91
2023/04/27 10:10:46;;;;;;;6.55;2.53;;;19.50;1.00;;;;;;5031940;28;20115;-89
2023/04/27 10:13:34;;;;;;;5.38;2.55;;;19.40;1.00;;;;;;5032835;28;20052;-88
2023/04/27 10:16:21;;;;;;;6.35;2.30;;;19.30;1.00;;;;;;5013952;28;20053;-90
2023/04/27 10:19:12;;;;;;;5.80;2.60;;;19.70;1.00;;;;;;5016838;28;20045;-88
2023/04/27 10:22:06;;;;;;;7.35;2.75;;;19.50;1.00;;;;;;5044111;28;20077;-89
2023/04/27 10:24:53;;;;;;;3.33;2.60;;;19.80;1.00;;;;;;5031885;28;20049;-87
2023/04/27 10:27:47;;;;;;;9.60;2.70;;;20.10;1.00;;;;;;5007499;28;20038;-89
2023/04/27 10:30:37;;;;;;;4.85;2.70;;;21.30;1.00;;;;;;5033263;28;20523;-89
2023/04/27 10:33:24;;;;;;;7.55;2.80;;;21.30;1.00;;;;;;5008102;28;20147;-90
2023/04/27 10:36:17;;;;;;;7.05;2.67;;;20.60;1.00;;;;;;5031228;28;20049;-88
2023/04/27 10:39:21;;;;;;;4.43;2.50;;;20.10;1.00;;;;;;5008283;28;20072;-88
2023/04/27 10:42:28;;;;;;;3.67;2.60;;;20.70;1.00;;;;;;5028435;28;20045;-91
2023/04/27 10:45:26;;;;;;;3.20;2.20;;;21.30;1.00;;;;;;5025682;28;20404;-88
2023/04/27 10:48:19;;;;;;;5.22;2.13;;;22.90;1.00;;;;;;5008490;28;20424;-90
2023/04/27 10:51:07;;;;;;;5.43;2.90;;;23.70;1.00;;;;;;5007345;28;20041;-89
2023/04/27 10:53:54;;;;;;;8.32;3.00;;;24.20;1.00;;;;;;5015798;28;20161;-85
2023/04/27 10:56:42;;;;;;;4.65;2.70;;;23.30;1.00;;;;;;5038329;28;20087;-85
2023/04/27 10:59:30;;;;;;;5.93;2.40;;;23.00;1.00;;;;;;5015602;28;20049;-87
2023/04/27 11:02:25;;;;;;;9.13;2.67;;;22.30;1.00;;;;;;5006642;28;20050;-88
2023/04/27 11:05:29;;;;;;;5.53;2.47;;;22.20;1.00;;;;;;5031462;28;20088;-88
2023/04/27 11:08:19;;;;;;;3.47;2.08;;;23.00;1.00;;;;;;5018265;28;20419;-88
2023/04/27 11:11:14;;;;;;;8.88;2.00;;;24.30;1.00;;;;;;5018821;28;20049;-87
2023/04/27 11:14:03;;;;;;;4.32;2.10;;;24.40;1.00;;;;;;5027162;28;20037;-87
2023/04/27 11:16:52;;;;;;;6.15;2.10;;;24.00;1.00;;;;;;5019818;28;20041;-88
2023/04/27 11:19:46;;;;;;;5.05;2.25;;;24.10;1.00;;;;;;5016723;28;20046;-87
2023/04/27 11:22:42;;;;;;;4.83;2.30;;;23.60;1.00;;;;;;5034687;28;20050;-87
2023/04/27 11:25:31;;;;;;;4.90;2.35;;;22.40;1.00;;;;;;5039325;28;20041;-88
2023/04/27 11:28:24;;;;;;;4.53;2.83;;;22.30;1.00;;;;;;5017519;28;20053;-88
2023/04/27 11:31:15;;;;;;;5.50;1.83;;;21.70;1.00;;;;;;5047224;28;20033;-86
2023/04/27 11:34:05;;;;;;;3.90;2.20;;;21.60;1.00;;;;;;5039150;28;20037;-85
2023/04/27 11:37:05;;;;;;;7.88;2.45;;;22.70;1.00;;;;;;5038403;28;20148;-86
2023/04/27 11:40:05;;;;;;;3.90;2.22;;;23.20;1.00;;;;;;5028771;28;20049;-86
2023/04/27 11:43:04;;;;;;;3.38;2.20;;;23.10;1.00;;;;;;5021418;28;20369;-85
2023/04/27 11:45:54;;;;;;;6.35;2.25;;;23.00;1.00;;;;;;5018239;28;20463;-87
2023/04/27 11:48:44;;;;;;;6.15;2.50;;;21.90;1.00;;;;;;5015375;28;20049;-88
2023/04/27 11:51:35;;;;;;;5.05;2.40;;;20.50;1.00;;;;;;5034127;28;20123;-86
2023/04/27 11:54:28;;;;;;;7.50;2.63;;;20.00;1.00;;;;;;5022376;28;20041;-87
2023/04/27 11:57:16;;;;;;;6.68;2.50;;;19.50;1.00;;;;;;5034571;28;20049;-86
2023/04/27 12:00:10;;;;;;;5.07;2.30;;;20.30;1.00;;;;;;5029478;28;20692;-87
2023/04/27 12:02:58;;;;;;;7.78;2.63;;;22.00;1.00;;;;;;5033059;28;20049;-86
2023/04/27 12:05:52;;;;;;;4.10;2.28;;;22.70;1.00;;;;;;5036155;28;20045;-86
2023/04/27 12:08:44;;;;;;;4.75;2.40;;;21.90;1.00;;;;;;5032432;28;20037;-86
2023/04/27 12:11:32;;;;;;;5.43;2.67;;;21.30;1.00;;;;;;5021393;28;20057;-89
2023/04/27 12:14:19;;;;;;;6.53;2.78;;;19.80;1.00;;;;;;5039662;28;20153;-87
2023/04/27 12:17:06;;;;;;;4.47;2.47;;;19.50;1.00;;;;;;5036785;28;20048;-88
2023/04/27 12:19:54;;;;;;;4.03;2.30;;;19.60;1.00;;;;;;5033425;28;20045;-84
2023/04/27 12:22:41;;;;;;;6.45;2.72;;;19.20;1.00;;;;;;5028572;28;20073;-87
2023/04/27 12:25:37;;;;;;;6.50;2.55;;;19.20;1.00;;;;;;5021825;28;20053;-87
2023/04/27 12:28:24;;;;;;;8.25;2.67;;;19.20;1.00;;;;;;5018344;28;20135;-89
2023/04/27 12:31:22;;;;;;;5.72;2.38;;;19.90;1.00;;;;;;5030662;28;20484;-90
2023/04/27 12:34:13;;;;;;;5.57;2.83;;;20.40;1.00;;;;;;5019047;28;20042;-86
2023/04/27 12:37:01;;;;;;;8.90;2.88;;;20.40;1.00;;;;;;5013596;28;20029;-86
2023/04/27 12:39:48;;;;;;;5.70;2.40;;;19.70;1.00;;;;;;5022536;28;20049;-89
2023/04/27 12:42:38;;;;;;;3.55;2.53;;;19.40;1.00;;;;;;5008452;28;20046;-86
2023/04/27 12:45:26;;;;;;;6.07;2.38;;;19.70;1.00;;;;;;5017783;28;20045;-87
2023/04/27 12:48:14;;;;;;;6.07;2.13;;;19.80;1.00;;;;;;5021523;28;20048;-86
2023/04/27 12:51:05;;;;;;;5.03;2.17;;;19.40;1.00;;;;;;5024998;28;20046;-87
2023/04/27 12:53:52;;;;;;;3.53;2.08;;;19.40;1.00;;;;;;5015592;28;20461;-86
2023/04/27 12:56:40;;;;;;;6.82;2.65;;;19.90;1.00;;;;;;5033386;28;20041;-87
2023/04/27 12:59:31;;;;;;;5.60;2.40;;;20.30;1.00;;;;;;5028317;28;20056;-88
2023/04/27 13:02:18;;;;;;;4.47;2.13;;;20.30;1.00;;;;;;5034012;28;20053;-88
2023/04/27 13:05:06;;;;;;;7.82;2.40;;;21.10;1.00;;;;;;5020810;28;20099;-87
2023/04/27 13:07:57;;;;;;;7.22;2.17;;;22.40;1.00;;;;;;5011250;28;20045;-88
2023/04/27 13:10:44;;;;;;;4.35;2.22;;;24.60;1.00;;;;;;5033612;28;20045;-86
2023/04/27 13:13:31;;;;;;;5.43;2.15;;;24.80;1.00;;;;;;5025547;28;20452;-84
2023/04/27 13:16:20;;;;;;;7.85;2.00;;;24.60;1.00;;;;;;5010626;28;20468;-87
2023/04/27 13:19:07;;;;;;;3.40;1.65;;;25.50;1.00;;;;;;5015927;28;20046;-86
2023/04/27 13:21:55;;;;;;;4.80;1.70;;;25.80;1.00;;;;;;5027756;28;20057;-85
2023/04/27 13:24:42;;;;;;;4.50;1.80;;;25.20;1.00;;;;;;5037989;28;20049;-84
2023/04/27 13:27:30;;;;;;;4.50;2.55;;;23.10;1.00;;;;;;5030809;28;20072;-85
2023/04/27 13:30:19;;;;;;;4.95;1.90;;;22.40;1.00;;;;;;5013239;28;20038;-86
2023/04/27 13:33:11;;;;;;;4.28;1.65;;;22.30;1.00;;;;;;5018445;28;20365;-86
2023/04/27 13:36:10;;;;;;;4.78;1.70;;;22.20;1.00;;;;;;5038458;28;20072;-87
2023/04/27 13:39:00;;;;;;;3.20;1.30;;;22.80;1.00;;;;;;5023282;28;20179;-84
2023/04/27 13:41:48;;;;;;;3.53;1.42;;;23.40;1.00;;;;;;5038309;28;20360;-84
2023/04/27 13:44:35;;;;;;;2.00;1.33;;;23.40;1.00;;;;;;5035598;28;20056;-85
2023/04/27 13:47:22;;;;;;;2.25;1.42;;;24.10;1.00;;;;;;5018445;28;20100;-86
2023/04/27 13:50:11;;;;;;;4.18;1.88;;;24.40;1.00;;;;;;5033133;28;20116;-86
2023/04/27 13:53:00;;;;;;;3.13;1.60;;;23.20;1.00;;;;;;5030745;28;20369;-85
2023/04/27 13:55:47;;;;;;;4.72;1.60;;;21.50;1.00;;;;;;5013302;28;20045;-87
2023/04/27 13:58:35;;;;;;;4.38;1.40;;;21.00;1.00;;;;;;5026868;28;20046;-87
2023/04/27 14:01:23;;;;;;;3.65;1.70;;;20.70;1.00;;;;;;5020172;28;20073;-88
2023/04/27 14:04:11;;;;;;;3.00;1.33;;;21.10;1.00;;;;;;5026311;28;20189;-86
2023/04/27 14:06:59;;;;;;;2.90;1.48;;;20.70;1.00;;;;;;5036899;28;20045;-87
2023/04/27 14:09:54;;;;;;;2.55;1.48;;;19.80;1.00;;;;;;5033301;28;20049;-86
2023/04/27 14:12:48;;;;;;;4.47;1.50;;;19.90;1.00;;;;;;5019816;28;20486;-87
2023/04/27 14:15:41;;;;;;;4.70;1.40;;;20.00;1.00;;;;;;5034310;28;20420;-88
2023/04/27 14:18:28;;;;;;;2.78;1.70;;;20.30;1.00;;;;;;5031980;28;20049;-88
2023/04/27 14:21:21;;;;;;;4.35;1.50;;;20.10;1.00;;;;;;5025522;28;20084;-87
2023/04/27 14:24:11;;;;;;;3.17;1.60;;;20.30;1.00;;;;;;5031316;28;20045;-86
2023/04/27 14:26:58;;;;;;;3.08;1.42;;;21.20;1.00;;;;;;5042658;28;20123;-86
2023/04/27 14:29:45;;;;;;;2.33;1.40;;;23.40;1.00;;;;;;5027836;28;20387;-87
2023/04/27 14:32:32;;;;;;;3.92;1.75;;;24.10;1.00;;;;;;5020010;28;20364;-87
2023/04/27 14:35:22;;;;;;;3.95;1.48;;;23.00;1.00;;;;;;5023049;28;20464;-88
2023/04/27 14:38:10;;;;;;;1.98;1.48;;;23.00;1.00;;;;;;5017890;28;20088;-86
2023/04/27 14:40:58;;;;;;;2.92;1.83;;;22.90;1.00;;;;;;5024401;28;20124;-91
2023/04/27 14:44:09;;;;;;;2.30;1.58;;;21.70;1.00;;;;;;5004476;28;20128;-91
2023/04/27 14:51:12;;;;;;;3.83;2.20;;;19.90;1.00;;;;;;5033041;28;20045;-93
2023/04/27 14:54:31;;;;;;;2.33;1.90;;;19.50;1.00;;;;;;4952495;29;20027;-91
2023/04/27 15:02:07;;;;;;;3.33;1.70;;;19.00;1.00;;;;;;4933929;28;20035;-90
2023/04/27 15:05:15;;;;;;;2.83;1.20;;;19.80;1.00;;;;;;4922178;28;20163;-91
2023/04/27 15:09:02;;;;;;;;;;;;;;;;;;;;;
2023/04/27 15:12:06;;;;;;;2.38;1.45;;;20.80;1.00;;;;;;5021266;28;20107;-89
2023/04/27 15:15:02;;;;;;;2.60;1.35;;;22.00;1.00;;;;;;5048351;28;20049;-89
2023/04/27 15:18:29;;;;;;;4.35;1.60;;;22.80;1.00;;;;;;5029237;28;20049;-91
2023/04/27 15:25:42;;;;;;;3.55;1.50;;;19.80;1.00;;;;;;5045236;28;20060;-91
2023/04/27 15:28:32;;;;;;;3.03;1.30;;;19.10;1.00;;;;;;5033910;28;20038;-89
2023/04/27 15:31:20;;;;;;;2.72;1.38;;;19.10;1.00;;;;;;5015637;28;20133;-88
2023/04/27 15:34:07;;;;;;;3.03;1.30;;;19.30;1.00;;;;;;5025576;28;20112;-85
2023/04/27 15:36:54;;;;;;;5.40;1.58;;;19.30;1.00;;;;;;5035982;28;20053;-85
2023/04/27 15:39:42;;;;;;;1.90;1.13;;;19.10;1.00;;;;;;5019412;28;20104;-87
2023/04/27 15:42:31;;;;;;;3.05;1.50;;;19.70;1.00;;;;;;5019912;28;20049;-88
2023/04/27 15:45:19;;;;;;;6.25;1.73;;;20.10;1.00;;;;;;5023804;28;20049;-89
2023/04/27 15:48:10;;;;;;;2.60;1.35;;;19.30;1.00;;;;;;5020073;28;20046;-88
2023/04/27 15:51:06;;;;;;;4.75;1.65;;;18.60;1.00;;;;;;5019084;28;20435;-90
2023/04/27 15:53:59;;;;;;;3.20;1.30;;;18.30;1.00;;;;;;5026632;28;20057;-88
2023/04/27 15:56:46;;;;;;;2.90;1.33;;;18.70;1.00;;;;;;5034533;28;20452;-88
2023/04/27 15:59:36;;;;;;;5.45;1.45;;;18.80;1.00;;;;;;5031853;28;20088;-88
2023/04/27 16:02:25;;;;;;;4.03;1.30;;;19.60;1.00;;;;;;5031887;28;20029;-87
2023/04/27 16:05:13;;;;;;;2.00;1.10;;;21.10;1.00;;;;;;5036081;28;20116;-87